sensor_id;sensor_type;location;lat;lon;timestamp;temperature;humidity
15609;DHT22;64278;45.642;13.756;2023-02-24T00:00:08;22.30;59.70
15609;DHT22;64278;45.642;13.756;2023-02-24T00:02:54;22.30;59.70
15609;DHT22;64278;45.642;13.756;2023-02-24T00:05:20;22.30;59.60
15609;DHT22;64278;45.642;13.756;2023-02-24T00:07:48;22.30;59.60
15609;DHT22;64278;45.642;13.756;2023-02-24T00:10:14;22.30;59.60
15609;DHT22;64278;45.642;13.756;2023-02-24T00:12:44;22.30;59.60
15609;DHT22;64278;45.642;13.756;2023-02-24T00:15:14;22.30;59.70
15609;DHT22;64278;45.642;13.756;2023-02-24T00:17:41;22.30;59.80
15609;DHT22;64278;45.642;13.756;2023-02-24T00:20:08;22.30;60.60
15609;DHT22;64278;45.642;13.756;2023-02-24T00:22:38;22.30;59.90
15609;DHT22;64278;45.642;13.756;2023-02-24T00:25:04;22.20;59.90
15609;DHT22;64278;45.642;13.756;2023-02-24T00:27:29;22.30;60.10
15609;DHT22;64278;45.642;13.756;2023-02-24T00:29:56;22.20;60.10
15609;DHT22;64278;45.642;13.756;2023-02-24T00:32:22;22.30;60.20
15609;DHT22;64278;45.642;13.756;2023-02-24T00:34:47;22.20;60.20
15609;DHT22;64278;45.642;13.756;2023-02-24T00:37:13;22.20;60.30
15609;DHT22;64278;45.642;13.756;2023-02-24T00:39:39;22.20;60.40
15609;DHT22;64278;45.642;13.756;2023-02-24T00:42:06;22.20;60.40
15609;DHT22;64278;45.642;13.756;2023-02-24T00:44:34;22.20;60.50
15609;DHT22;64278;45.642;13.756;2023-02-24T00:47:00;22.20;60.50
15609;DHT22;64278;45.642;13.756;2023-02-24T00:49:27;22.20;60.60
15609;DHT22;64278;45.642;13.756;2023-02-24T00:51:54;22.20;60.70
15609;DHT22;64278;45.642;13.756;2023-02-24T00:54:20;22.10;60.80
15609;DHT22;64278;45.642;13.756;2023-02-24T00:56:49;22.10;60.80
15609;DHT22;64278;45.642;13.756;2023-02-24T00:59:16;22.20;60.90
15609;DHT22;64278;45.642;13.756;2023-02-24T01:01:43;22.20;60.90
15609;DHT22;64278;45.642;13.756;2023-02-24T01:04:11;22.10;61.00
15609;DHT22;64278;45.642;13.756;2023-02-24T01:06:43;22.10;61.00
15609;DHT22;64278;45.642;13.756;2023-02-24T01:09:14;22.10;61.10
15609;DHT22;64278;45.642;13.756;2023-02-24T01:11:41;22.10;61.10
15609;DHT22;64278;45.642;13.756;2023-02-24T01:14:29;22.10;61.20
15609;DHT22;64278;45.642;13.756;2023-02-24T01:16:55;22.10;61.20
15609;DHT22;64278;45.642;13.756;2023-02-24T01:19:24;22.10;61.30
15609;DHT22;64278;45.642;13.756;2023-02-24T01:22:05;22.10;61.40
15609;DHT22;64278;45.642;13.756;2023-02-24T01:24:34;22.10;61.40
15609;DHT22;64278;45.642;13.756;2023-02-24T01:27:01;22.10;61.40
15609;DHT22;64278;45.642;13.756;2023-02-24T01:29:27;22.00;61.40
15609;DHT22;64278;45.642;13.756;2023-02-24T01:31:53;22.00;61.30
15609;DHT22;64278;45.642;13.756;2023-02-24T01:34:20;22.00;61.30
15609;DHT22;64278;45.642;13.756;2023-02-24T01:36:45;22.00;61.30
15609;DHT22;64278;45.642;13.756;2023-02-24T01:39:11;22.00;61.30
15609;DHT22;64278;45.642;13.756;2023-02-24T01:41:39;22.00;61.40
15609;DHT22;64278;45.642;13.756;2023-02-24T01:44:23;22.00;61.40
15609;DHT22;64278;45.642;13.756;2023-02-24T01:46:52;22.00;61.60
15609;DHT22;64278;45.642;13.756;2023-02-24T01:54:13;22.00;61.60
15609;DHT22;64278;45.642;13.756;2023-02-24T01:56:40;22.00;61.70
15609;DHT22;64278;45.642;13.756;2023-02-24T01:59:08;22.00;61.80
15609;DHT22;64278;45.642;13.756;2023-02-24T02:01:35;22.00;61.80
15609;DHT22;64278;45.642;13.756;2023-02-24T02:04:20;21.90;61.90
15609;DHT22;64278;45.642;13.756;2023-02-24T02:06:48;21.90;61.90
15609;DHT22;64278;45.642;13.756;2023-02-24T02:09:14;21.90;61.90
15609;DHT22;64278;45.642;13.756;2023-02-24T02:11:41;21.90;61.90
15609;DHT22;64278;45.642;13.756;2023-02-24T02:14:07;21.90;61.90
15609;DHT22;64278;45.642;13.756;2023-02-24T02:16:43;21.90;61.90
15609;DHT22;64278;45.642;13.756;2023-02-24T02:32:57;21.90;62.10
15609;DHT22;64278;45.642;13.756;2023-02-24T02:35:41;21.90;62.00
15609;DHT22;64278;45.642;13.756;2023-02-24T02:38:38;21.90;62.10
15609;DHT22;64278;45.642;13.756;2023-02-24T02:41:23;21.90;62.10
15609;DHT22;64278;45.642;13.756;2023-02-24T02:43:56;21.90;62.10
15609;DHT22;64278;45.642;13.756;2023-02-24T02:51:41;21.80;62.10
15609;DHT22;64278;45.642;13.756;2023-02-24T02:54:19;21.80;62.20
15609;DHT22;64278;45.642;13.756;2023-02-24T02:57:01;21.80;62.20
15609;DHT22;64278;45.642;13.756;2023-02-24T02:59:30;21.80;62.20
15609;DHT22;64278;45.642;13.756;2023-02-24T03:01:57;21.80;62.20
15609;DHT22;64278;45.642;13.756;2023-02-24T03:04:41;21.80;62.20
15609;DHT22;64278;45.642;13.756;2023-02-24T03:07:09;21.80;62.30
15609;DHT22;64278;45.642;13.756;2023-02-24T03:09:40;21.80;62.30
15609;DHT22;64278;45.642;13.756;2023-02-24T03:12:14;21.80;62.40
15609;DHT22;64278;45.642;13.756;2023-02-24T03:14:47;21.80;62.40
15609;DHT22;64278;45.642;13.756;2023-02-24T03:17:21;21.80;62.40
15609;DHT22;64278;45.642;13.756;2023-02-24T03:19:50;21.80;62.50
15609;DHT22;64278;45.642;13.756;2023-02-24T03:22:26;21.80;62.50
15609;DHT22;64278;45.642;13.756;2023-02-24T03:24:54;21.80;63.30
15609;DHT22;64278;45.642;13.756;2023-02-24T03:27:28;21.80;62.50
15609;DHT22;64278;45.642;13.756;2023-02-24T03:29:57;21.80;62.50
15609;DHT22;64278;45.642;13.756;2023-02-24T03:32:38;21.80;62.60
15609;DHT22;64278;45.642;13.756;2023-02-24T03:35:32;21.80;62.50
15609;DHT22;64278;45.642;13.756;2023-02-24T03:38:02;21.80;62.50
15609;DHT22;64278;45.642;13.756;2023-02-24T03:40:28;21.80;62.50
15609;DHT22;64278;45.642;13.756;2023-02-24T03:43:25;21.80;62.60
15609;DHT22;64278;45.642;13.756;2023-02-24T03:45:50;21.70;62.60
15609;DHT22;64278;45.642;13.756;2023-02-24T03:48:16;21.70;62.60
15609;DHT22;64278;45.642;13.756;2023-02-24T03:50:42;21.70;62.60
15609;DHT22;64278;45.642;13.756;2023-02-24T03:56:16;21.70;62.60
15609;DHT22;64278;45.642;13.756;2023-02-24T04:04:41;21.70;62.60
15609;DHT22;64278;45.642;13.756;2023-02-24T04:07:15;21.70;62.70
15609;DHT22;64278;45.642;13.756;2023-02-24T04:09:52;21.70;62.70
15609;DHT22;64278;45.642;13.756;2023-02-24T04:12:25;21.70;62.70
15609;DHT22;64278;45.642;13.756;2023-02-24T04:17:52;21.70;62.80
15609;DHT22;64278;45.642;13.756;2023-02-24T04:20:21;21.70;62.80
15609;DHT22;64278;45.642;13.756;2023-02-24T04:22:52;21.70;62.80
15609;DHT22;64278;45.642;13.756;2023-02-24T04:25:23;21.70;63.10
15609;DHT22;64278;45.642;13.756;2023-02-24T04:27:55;21.70;62.90
15609;DHT22;64278;45.642;13.756;2023-02-24T04:30:25;21.60;62.80
15609;DHT22;64278;45.642;13.756;2023-02-24T04:32:51;21.70;62.80
15609;DHT22;64278;45.642;13.756;2023-02-24T04:35:19;21.60;62.80
15609;DHT22;64278;45.642;13.756;2023-02-24T04:37:46;21.60;62.80
15609;DHT22;64278;45.642;13.756;2023-02-24T04:40:13;21.60;62.80
15609;DHT22;64278;45.642;13.756;2023-02-24T04:42:43;21.60;62.90
15609;DHT22;64278;45.642;13.756;2023-02-24T04:45:15;21.60;62.90
15609;DHT22;64278;45.642;13.756;2023-02-24T04:47:43;21.60;62.90
15609;DHT22;64278;45.642;13.756;2023-02-24T04:50:14;21.60;63.00
15609;DHT22;64278;45.642;13.756;2023-02-24T04:52:52;21.60;63.00
15609;DHT22;64278;45.642;13.756;2023-02-24T04:55:20;21.60;63.00
15609;DHT22;64278;45.642;13.756;2023-02-24T04:57:47;21.60;63.00
15609;DHT22;64278;45.642;13.756;2023-02-24T05:00:14;21.60;63.00
15609;DHT22;64278;45.642;13.756;2023-02-24T05:02:53;21.60;63.00
15609;DHT22;64278;45.642;13.756;2023-02-24T05:05:23;21.60;63.00
15609;DHT22;64278;45.642;13.756;2023-02-24T05:07:57;21.60;63.00
15609;DHT22;64278;45.642;13.756;2023-02-24T05:10:43;21.60;63.10
15609;DHT22;64278;45.642;13.756;2023-02-24T05:13:13;21.60;63.20
15609;DHT22;64278;45.642;13.756;2023-02-24T05:15:40;21.50;63.00
15609;DHT22;64278;45.642;13.756;2023-02-24T05:18:08;21.60;63.20
15609;DHT22;64278;45.642;13.756;2023-02-24T05:20:38;21.60;64.00
15609;DHT22;64278;45.642;13.756;2023-02-24T05:23:28;21.60;63.20
15609;DHT22;64278;45.642;13.756;2023-02-24T05:25:57;21.50;63.10
15609;DHT22;64278;45.642;13.756;2023-02-24T05:28:23;21.50;63.10
15609;DHT22;64278;45.642;13.756;2023-02-24T05:30:50;21.50;63.10
15609;DHT22;64278;45.642;13.756;2023-02-24T05:33:16;21.50;63.10
15609;DHT22;64278;45.642;13.756;2023-02-24T05:35:46;21.50;63.10
15609;DHT22;64278;45.642;13.756;2023-02-24T05:38:13;21.50;63.20
15609;DHT22;64278;45.642;13.756;2023-02-24T05:40:39;21.50;63.30
15609;DHT22;64278;45.642;13.756;2023-02-24T05:43:11;21.50;63.30
15609;DHT22;64278;45.642;13.756;2023-02-24T05:45:42;21.50;63.30
15609;DHT22;64278;45.642;13.756;2023-02-24T05:48:10;21.50;63.40
15609;DHT22;64278;45.642;13.756;2023-02-24T05:50:36;21.50;63.40
15609;DHT22;64278;45.642;13.756;2023-02-24T05:53:03;21.50;63.30
15609;DHT22;64278;45.642;13.756;2023-02-24T05:55:29;21.50;63.40
15609;DHT22;64278;45.642;13.756;2023-02-24T05:57:56;21.50;63.40
15609;DHT22;64278;45.642;13.756;2023-02-24T06:00:23;21.50;63.40
15609;DHT22;64278;45.642;13.756;2023-02-24T06:02:50;21.50;63.50
15609;DHT22;64278;45.642;13.756;2023-02-24T06:05:17;21.50;63.50
15609;DHT22;64278;45.642;13.756;2023-02-24T06:07:58;21.50;63.50
15609;DHT22;64278;45.642;13.756;2023-02-24T06:10:33;21.50;63.60
15609;DHT22;64278;45.642;13.756;2023-02-24T06:13:02;21.50;63.70
15609;DHT22;64278;45.642;13.756;2023-02-24T06:15:29;21.50;63.70
15609;DHT22;64278;45.642;13.756;2023-02-24T06:17:55;21.50;63.70
15609;DHT22;64278;45.642;13.756;2023-02-24T06:20:24;21.50;63.80
15609;DHT22;64278;45.642;13.756;2023-02-24T06:22:52;21.50;63.80
15609;DHT22;64278;45.642;13.756;2023-02-24T06:25:20;21.50;63.90
15609;DHT22;64278;45.642;13.756;2023-02-24T06:27:53;21.50;64.00
15609;DHT22;64278;45.642;13.756;2023-02-24T06:30:24;21.50;64.10
15609;DHT22;64278;45.642;13.756;2023-02-24T06:32:51;21.50;64.10
15609;DHT22;64278;45.642;13.756;2023-02-24T06:35:18;21.50;64.20
15609;DHT22;64278;45.642;13.756;2023-02-24T06:37:44;21.50;64.20
15609;DHT22;64278;45.642;13.756;2023-02-24T06:40:10;21.50;64.30
15609;DHT22;64278;45.642;13.756;2023-02-24T06:42:47;21.50;64.30
15609;DHT22;64278;45.642;13.756;2023-02-24T06:45:13;21.50;64.40
15609;DHT22;64278;45.642;13.756;2023-02-24T06:47:40;21.50;64.30
15609;DHT22;64278;45.642;13.756;2023-02-24T06:50:09;21.50;64.40
15609;DHT22;64278;45.642;13.756;2023-02-24T06:52:34;21.50;64.40
15609;DHT22;64278;45.642;13.756;2023-02-24T06:55:01;21.50;64.50
15609;DHT22;64278;45.642;13.756;2023-02-24T06:57:30;21.50;64.50
15609;DHT22;64278;45.642;13.756;2023-02-24T06:59:59;21.50;64.70
15609;DHT22;64278;45.642;13.756;2023-02-24T07:02:26;21.50;64.80
15609;DHT22;64278;45.642;13.756;2023-02-24T07:05:04;21.50;64.90
15609;DHT22;64278;45.642;13.756;2023-02-24T07:07:30;21.50;65.00
15609;DHT22;64278;45.642;13.756;2023-02-24T07:09:56;21.50;64.90
15609;DHT22;64278;45.642;13.756;2023-02-24T07:12:22;21.50;64.80
15609;DHT22;64278;45.642;13.756;2023-02-24T07:14:48;21.50;64.90
15609;DHT22;64278;45.642;13.756;2023-02-24T07:17:17;21.50;65.00
15609;DHT22;64278;45.642;13.756;2023-02-24T07:19:43;21.50;65.10
15609;DHT22;64278;45.642;13.756;2023-02-24T07:22:09;21.50;65.10
15609;DHT22;64278;45.642;13.756;2023-02-24T07:24:36;21.50;65.00
15609;DHT22;64278;45.642;13.756;2023-02-24T07:27:07;21.50;65.20
15609;DHT22;64278;45.642;13.756;2023-02-24T07:29:34;21.50;65.30
15609;DHT22;64278;45.642;13.756;2023-02-24T07:32:02;21.50;65.40
15609;DHT22;64278;45.642;13.756;2023-02-24T07:34:29;21.50;65.40
15609;DHT22;64278;45.642;13.756;2023-02-24T07:36:56;21.50;65.40
15609;DHT22;64278;45.642;13.756;2023-02-24T07:39:23;21.40;65.40
15609;DHT22;64278;45.642;13.756;2023-02-24T07:41:50;21.40;65.40
15609;DHT22;64278;45.642;13.756;2023-02-24T07:44:18;21.40;65.50
15609;DHT22;64278;45.642;13.756;2023-02-24T07:46:46;21.40;65.60
15609;DHT22;64278;45.642;13.756;2023-02-24T07:49:18;21.40;65.70
15609;DHT22;64278;45.642;13.756;2023-02-24T07:51:45;21.40;65.60
15609;DHT22;64278;45.642;13.756;2023-02-24T07:54:12;21.40;65.70
15609;DHT22;64278;45.642;13.756;2023-02-24T07:56:40;21.40;65.70
15609;DHT22;64278;45.642;13.756;2023-02-24T07:59:24;21.40;65.80
15609;DHT22;64278;45.642;13.756;2023-02-24T08:01:50;21.40;65.70
15609;DHT22;64278;45.642;13.756;2023-02-24T08:04:22;21.40;65.60
15609;DHT22;64278;45.642;13.756;2023-02-24T08:06:48;21.40;65.40
15609;DHT22;64278;45.642;13.756;2023-02-24T08:09:28;21.40;65.30
15609;DHT22;64278;45.642;13.756;2023-02-24T08:12:20;21.40;65.40
15609;DHT22;64278;45.642;13.756;2023-02-24T08:14:48;21.40;65.30
15609;DHT22;64278;45.642;13.756;2023-02-24T08:19:45;21.40;65.40
15609;DHT22;64278;45.642;13.756;2023-02-24T08:22:12;21.40;65.40
15609;DHT22;64278;45.642;13.756;2023-02-24T08:24:51;21.40;65.40
15609;DHT22;64278;45.642;13.756;2023-02-24T08:27:19;21.50;65.60
15609;DHT22;64278;45.642;13.756;2023-02-24T08:29:52;21.40;65.50
15609;DHT22;64278;45.642;13.756;2023-02-24T08:32:41;21.40;65.50
15609;DHT22;64278;45.642;13.756;2023-02-24T08:35:18;21.40;65.30
15609;DHT22;64278;45.642;13.756;2023-02-24T08:37:53;21.40;65.40
15609;DHT22;64278;45.642;13.756;2023-02-24T08:40:25;21.40;65.40
15609;DHT22;64278;45.642;13.756;2023-02-24T08:45:26;21.40;65.60
15609;DHT22;64278;45.642;13.756;2023-02-24T08:48:00;21.40;65.60
15609;DHT22;64278;45.642;13.756;2023-02-24T08:50:43;21.40;66.50
15609;DHT22;64278;45.642;13.756;2023-02-24T08:53:10;21.40;65.80
15609;DHT22;64278;45.642;13.756;2023-02-24T08:55:44;21.40;65.80
15609;DHT22;64278;45.642;13.756;2023-02-24T08:58:09;21.40;65.70
15609;DHT22;64278;45.642;13.756;2023-02-24T09:00:43;21.40;65.80
15609;DHT22;64278;45.642;13.756;2023-02-24T09:03:20;21.40;65.90
15609;DHT22;64278;45.642;13.756;2023-02-24T09:06:03;21.40;66.30
15609;DHT22;64278;45.642;13.756;2023-02-24T09:08:32;21.50;66.70
15609;DHT22;64278;45.642;13.756;2023-02-24T09:11:02;21.50;66.90
15609;DHT22;64278;45.642;13.756;2023-02-24T09:13:36;21.50;67.20
15609;DHT22;64278;45.642;13.756;2023-02-24T09:16:08;21.50;67.20
15609;DHT22;64278;45.642;13.756;2023-02-24T09:18:41;21.60;67.20
15609;DHT22;64278;45.642;13.756;2023-02-24T09:21:16;21.60;67.20
15609;DHT22;64278;45.642;13.756;2023-02-24T09:23:41;21.50;66.70
15609;DHT22;64278;45.642;13.756;2023-02-24T09:26:13;21.50;66.40
15609;DHT22;64278;45.642;13.756;2023-02-24T09:28:39;21.50;66.10
15609;DHT22;64278;45.642;13.756;2023-02-24T09:31:19;21.50;65.90
15609;DHT22;64278;45.642;13.756;2023-02-24T09:33:48;21.40;64.20
15609;DHT22;64278;45.642;13.756;2023-02-24T09:36:19;21.40;63.00
15609;DHT22;64278;45.642;13.756;2023-02-24T09:38:54;21.30;60.20
15609;DHT22;64278;45.642;13.756;2023-02-24T09:44:43;21.10;59.20
15609;DHT22;64278;45.642;13.756;2023-02-24T09:52:50;21.00;60.50
15609;DHT22;64278;45.642;13.756;2023-02-24T09:55:35;21.00;60.80
15609;DHT22;64278;45.642;13.756;2023-02-24T10:06:40;21.00;63.10
15609;DHT22;64278;45.642;13.756;2023-02-24T10:11:51;20.90;62.50
15609;DHT22;64278;45.642;13.756;2023-02-24T10:17:15;20.90;61.60
15609;DHT22;64278;45.642;13.756;2023-02-24T10:19:47;20.90;61.20
15609;DHT22;64278;45.642;13.756;2023-02-24T10:25:51;20.80;60.90
15609;DHT22;64278;45.642;13.756;2023-02-24T10:28:47;20.80;60.70
15609;DHT22;64278;45.642;13.756;2023-02-24T10:31:33;20.80;60.60
15609;DHT22;64278;45.642;13.756;2023-02-24T10:34:06;20.80;60.60
15609;DHT22;64278;45.642;13.756;2023-02-24T10:36:33;20.80;60.40
15609;DHT22;64278;45.642;13.756;2023-02-24T10:41:49;20.80;60.20
15609;DHT22;64278;45.642;13.756;2023-02-24T10:44:23;20.70;59.90
15609;DHT22;64278;45.642;13.756;2023-02-24T10:47:07;20.70;59.90
15609;DHT22;64278;45.642;13.756;2023-02-24T10:49:46;20.70;59.70
15609;DHT22;64278;45.642;13.756;2023-02-24T10:55:31;20.70;59.80
15609;DHT22;64278;45.642;13.756;2023-02-24T11:00:57;20.70;59.80
15609;DHT22;64278;45.642;13.756;2023-02-24T11:03:45;20.70;59.80
15609;DHT22;64278;45.642;13.756;2023-02-24T11:06:30;20.70;59.90
15609;DHT22;64278;45.642;13.756;2023-02-24T11:09:05;20.80;60.00
15609;DHT22;64278;45.642;13.756;2023-02-24T11:12:14;20.80;60.10
15609;DHT22;64278;45.642;13.756;2023-02-24T11:15:29;20.80;60.20
15609;DHT22;64278;45.642;13.756;2023-02-24T11:18:20;20.80;60.30
15609;DHT22;64278;45.642;13.756;2023-02-24T11:20:51;20.80;60.40
15609;DHT22;64278;45.642;13.756;2023-02-24T11:23:22;20.80;60.50
15609;DHT22;64278;45.642;13.756;2023-02-24T11:25:52;20.80;60.60
15609;DHT22;64278;45.642;13.756;2023-02-24T11:31:21;20.80;60.70
15609;DHT22;64278;45.642;13.756;2023-02-24T11:41:22;20.80;61.00
15609;DHT22;64278;45.642;13.756;2023-02-24T11:44:04;20.80;61.00
15609;DHT22;64278;45.642;13.756;2023-02-24T11:46:45;20.80;61.10
15609;DHT22;64278;45.642;13.756;2023-02-24T11:49:30;20.80;61.10
15609;DHT22;64278;45.642;13.756;2023-02-24T11:51:59;20.70;61.10
15609;DHT22;64278;45.642;13.756;2023-02-24T11:54:35;20.80;61.20
15609;DHT22;64278;45.642;13.756;2023-02-24T11:57:02;20.80;61.20
15609;DHT22;64278;45.642;13.756;2023-02-24T11:59:38;20.80;61.30
15609;DHT22;64278;45.642;13.756;2023-02-24T12:02:21;20.70;61.20
15609;DHT22;64278;45.642;13.756;2023-02-24T12:07:40;20.80;61.40
15609;DHT22;64278;45.642;13.756;2023-02-24T12:10:20;20.70;61.40
15609;DHT22;64278;45.642;13.756;2023-02-24T12:15:32;20.80;61.60
15609;DHT22;64278;45.642;13.756;2023-02-24T12:18:30;20.80;61.80
15609;DHT22;64278;45.642;13.756;2023-02-24T12:21:12;20.80;62.10
15609;DHT22;64278;45.642;13.756;2023-02-24T12:23:46;20.80;62.00
15609;DHT22;64278;45.642;13.756;2023-02-24T12:26:19;20.80;62.10
15609;DHT22;64278;45.642;13.756;2023-02-24T12:32:18;20.80;62.20
15609;DHT22;64278;45.642;13.756;2023-02-24T12:54:15;21.10;61.20
15609;DHT22;64278;45.642;13.756;2023-02-24T12:56:47;21.20;61.00
15609;DHT22;64278;45.642;13.756;2023-02-24T12:59:17;21.30;60.90
15609;DHT22;64278;45.642;13.756;2023-02-24T13:02:02;21.30;60.80
15609;DHT22;64278;45.642;13.756;2023-02-24T13:12:33;21.50;60.60
15609;DHT22;64278;45.642;13.756;2023-02-24T13:15:04;21.50;60.70
15609;DHT22;64278;45.642;13.756;2023-02-24T13:17:30;21.60;60.70
15609;DHT22;64278;45.642;13.756;2023-02-24T13:19:56;21.60;60.60
15609;DHT22;64278;45.642;13.756;2023-02-24T13:22:31;21.60;60.50
15609;DHT22;64278;45.642;13.756;2023-02-24T13:25:13;21.70;60.60
15609;DHT22;64278;45.642;13.756;2023-02-24T13:27:42;21.70;60.70
15609;DHT22;64278;45.642;13.756;2023-02-24T13:32:39;21.80;60.80
15609;DHT22;64278;45.642;13.756;2023-02-24T13:37:52;21.80;60.80
15609;DHT22;64278;45.642;13.756;2023-02-24T13:42:57;21.80;60.80
15609;DHT22;64278;45.642;13.756;2023-02-24T14:02:04;21.80;60.90
15609;DHT22;64278;45.642;13.756;2023-02-24T14:04:37;21.80;61.00
15609;DHT22;64278;45.642;13.756;2023-02-24T14:07:11;21.80;61.00
15609;DHT22;64278;45.642;13.756;2023-02-24T14:09:55;21.80;61.00
15609;DHT22;64278;45.642;13.756;2023-02-24T14:12:27;21.80;61.00
15609;DHT22;64278;45.642;13.756;2023-02-24T14:14:55;21.80;61.00
15609;DHT22;64278;45.642;13.756;2023-02-24T14:17:23;21.80;61.00
15609;DHT22;64278;45.642;13.756;2023-02-24T14:22:47;21.70;61.00
15609;DHT22;64278;45.642;13.756;2023-02-24T17:28:21;21.50;60.60
15609;DHT22;64278;45.642;13.756;2023-02-24T17:30:47;21.60;60.60
15609;DHT22;64278;45.642;13.756;2023-02-24T17:33:13;21.70;60.50
15609;DHT22;64278;45.642;13.756;2023-02-24T17:35:40;21.70;60.30
15609;DHT22;64278;45.642;13.756;2023-02-24T17:38:11;21.80;60.20
15609;DHT22;64278;45.642;13.756;2023-02-24T17:40:38;21.80;60.00
15609;DHT22;64278;45.642;13.756;2023-02-24T17:43:04;21.80;59.90
15609;DHT22;64278;45.642;13.756;2023-02-24T17:45:30;21.80;59.70
15609;DHT22;64278;45.642;13.756;2023-02-24T17:47:56;21.90;59.70
15609;DHT22;64278;45.642;13.756;2023-02-24T17:50:21;21.90;59.50
15609;DHT22;64278;45.642;13.756;2023-02-24T17:52:47;21.90;59.60
15609;DHT22;64278;45.642;13.756;2023-02-24T17:55:12;21.90;59.70
15609;DHT22;64278;45.642;13.756;2023-02-24T17:57:38;21.90;60.00
15609;DHT22;64278;45.642;13.756;2023-02-24T18:00:05;22.00;60.50
15609;DHT22;64278;45.642;13.756;2023-02-24T18:02:31;22.00;61.10
15609;DHT22;64278;45.642;13.756;2023-02-24T18:04:57;22.00;61.40
15609;DHT22;64278;45.642;13.756;2023-02-24T18:07:23;22.10;61.90
15609;DHT22;64278;45.642;13.756;2023-02-24T18:09:50;22.10;61.80
15609;DHT22;64278;45.642;13.756;2023-02-24T18:12:15;22.10;61.90
15609;DHT22;64278;45.642;13.756;2023-02-24T18:14:44;22.10;62.00
15609;DHT22;64278;45.642;13.756;2023-02-24T18:17:10;22.10;61.90
15609;DHT22;64278;45.642;13.756;2023-02-24T18:19:36;22.10;61.80
15609;DHT22;64278;45.642;13.756;2023-02-24T18:22:01;22.10;61.70
15609;DHT22;64278;45.642;13.756;2023-02-24T18:24:27;22.20;61.80
15609;DHT22;64278;45.642;13.756;2023-02-24T18:26:53;22.10;61.60
15609;DHT22;64278;45.642;13.756;2023-02-24T18:29:19;22.20;61.50
15609;DHT22;64278;45.642;13.756;2023-02-24T18:31:45;22.20;61.40
15609;DHT22;64278;45.642;13.756;2023-02-24T18:34:10;22.20;61.40
15609;DHT22;64278;45.642;13.756;2023-02-24T18:36:36;22.20;61.40
15609;DHT22;64278;45.642;13.756;2023-02-24T18:39:02;22.20;61.30
15609;DHT22;64278;45.642;13.756;2023-02-24T18:41:28;22.20;61.10
15609;DHT22;64278;45.642;13.756;2023-02-24T18:43:55;22.30;61.10
15609;DHT22;64278;45.642;13.756;2023-02-24T18:46:22;22.30;61.00
15609;DHT22;64278;45.642;13.756;2023-02-24T18:48:49;22.30;61.00
15609;DHT22;64278;45.642;13.756;2023-02-24T18:51:18;22.30;60.90
15609;DHT22;64278;45.642;13.756;2023-02-24T18:53:44;22.30;60.90
15609;DHT22;64278;45.642;13.756;2023-02-24T18:56:16;22.30;60.80
15609;DHT22;64278;45.642;13.756;2023-02-24T18:58:43;22.40;60.80
15609;DHT22;64278;45.642;13.756;2023-02-24T19:01:20;22.30;60.70
15609;DHT22;64278;45.642;13.756;2023-02-24T19:03:48;22.40;60.80
15609;DHT22;64278;45.642;13.756;2023-02-24T19:06:14;22.40;60.70
15609;DHT22;64278;45.642;13.756;2023-02-24T19:08:41;22.40;60.70
15609;DHT22;64278;45.642;13.756;2023-02-24T19:11:09;22.40;60.70
15609;DHT22;64278;45.642;13.756;2023-02-24T19:13:35;22.40;60.60
15609;DHT22;64278;45.642;13.756;2023-02-24T19:16:01;22.40;60.60
15609;DHT22;64278;45.642;13.756;2023-02-24T19:18:26;22.40;60.70
15609;DHT22;64278;45.642;13.756;2023-02-24T19:20:52;22.40;60.70
15609;DHT22;64278;45.642;13.756;2023-02-24T19:23:18;22.50;60.70
15609;DHT22;64278;45.642;13.756;2023-02-24T19:25:43;22.50;60.60
15609;DHT22;64278;45.642;13.756;2023-02-24T19:28:09;22.50;60.60
15609;DHT22;64278;45.642;13.756;2023-02-24T19:30:37;22.50;60.60
15609;DHT22;64278;45.642;13.756;2023-02-24T19:33:03;22.50;60.50
15609;DHT22;64278;45.642;13.756;2023-02-24T19:35:29;22.50;60.40
15609;DHT22;64278;45.642;13.756;2023-02-24T19:37:55;22.50;60.40
15609;DHT22;64278;45.642;13.756;2023-02-24T19:40:20;22.50;60.20
15609;DHT22;64278;45.642;13.756;2023-02-24T19:42:48;22.50;60.20
15609;DHT22;64278;45.642;13.756;2023-02-24T19:45:17;22.50;60.10
15609;DHT22;64278;45.642;13.756;2023-02-24T19:47:43;22.60;60.20
15609;DHT22;64278;45.642;13.756;2023-02-24T19:50:15;22.60;60.20
15609;DHT22;64278;45.642;13.756;2023-02-24T19:52:41;22.60;60.20
15609;DHT22;64278;45.642;13.756;2023-02-24T19:55:08;22.60;60.30
15609;DHT22;64278;45.642;13.756;2023-02-24T19:57:38;22.60;60.30
15609;DHT22;64278;45.642;13.756;2023-02-24T20:00:05;22.60;60.40
15609;DHT22;64278;45.642;13.756;2023-02-24T20:02:31;22.60;60.30
15609;DHT22;64278;45.642;13.756;2023-02-24T20:04:58;22.60;60.40
15609;DHT22;64278;45.642;13.756;2023-02-24T20:07:24;22.60;60.40
15609;DHT22;64278;45.642;13.756;2023-02-24T20:09:49;22.60;60.40
15609;DHT22;64278;45.642;13.756;2023-02-24T20:12:15;22.60;60.40
15609;DHT22;64278;45.642;13.756;2023-02-24T20:14:41;22.70;60.40
15609;DHT22;64278;45.642;13.756;2023-02-24T20:17:07;22.70;60.40
15609;DHT22;64278;45.642;13.756;2023-02-24T20:19:33;22.70;60.30
15609;DHT22;64278;45.642;13.756;2023-02-24T20:21:59;22.70;60.20
15609;DHT22;64278;45.642;13.756;2023-02-24T20:24:25;22.70;60.20
15609;DHT22;64278;45.642;13.756;2023-02-24T20:26:51;22.70;60.10
15609;DHT22;64278;45.642;13.756;2023-02-24T20:29:19;22.70;60.10
15609;DHT22;64278;45.642;13.756;2023-02-24T20:31:46;22.70;60.00
15609;DHT22;64278;45.642;13.756;2023-02-24T20:34:15;22.70;60.00
15609;DHT22;64278;45.642;13.756;2023-02-24T20:36:41;22.70;60.00
15609;DHT22;64278;45.642;13.756;2023-02-24T20:39:08;22.70;59.80
15609;DHT22;64278;45.642;13.756;2023-02-24T20:41:37;22.70;59.80
15609;DHT22;64278;45.642;13.756;2023-02-24T20:44:03;22.70;59.80
15609;DHT22;64278;45.642;13.756;2023-02-24T20:46:31;22.70;60.40
15609;DHT22;64278;45.642;13.756;2023-02-24T20:49:04;22.70;59.70
15609;DHT22;64278;45.642;13.756;2023-02-24T20:51:32;22.70;59.60
15609;DHT22;64278;45.642;13.756;2023-02-24T20:53:59;22.70;59.50
15609;DHT22;64278;45.642;13.756;2023-02-24T20:56:26;22.80;60.30
15609;DHT22;64278;45.642;13.756;2023-02-24T20:58:58;22.80;59.50
15609;DHT22;64278;45.642;13.756;2023-02-24T21:01:24;22.80;59.60
15609;DHT22;64278;45.642;13.756;2023-02-24T21:03:51;22.80;59.50
15609;DHT22;64278;45.642;13.756;2023-02-24T21:06:17;22.80;59.50
15609;DHT22;64278;45.642;13.756;2023-02-24T21:08:43;22.80;59.50